マイアミ の空港の天気 - METARとTAF

マイアミ国際空港 ( KMIA / MIA ) - アメリカ フロリダ州マイアミ
飛行場実況気象(Metar)
観測時間04/25 09:53 EDT (04/25 13:53 UTC)
風向・風速北北西 4m/s
視程10km以上
天気現象
少しの雲 雲底高度 910m
少しの雲 雲底高度 9140m
気温23.3℃
湿度64%
気圧1016.2hPa
METARKMIA 251353Z 33007KT 10SM FEW030 FEW300 23/16 A3001 RMK AO2 SLP162 T02330161
過去の天気等 Google飛行場航空写真 Wunderground天気予報

過去48時間のMETAR

飛行場予報(TAF)
発表時間: 4/25 07:24 EDT (4/25 11:24 UTC)
予報対象時間: 25日8時 EDT ~ 26日14時 EDT
風向・風速北西 3m/s
視程10km以上
少しの雲 雲底高度 1,830m
全天の4割程度の雲 雲底高度 2,440m
25日12時 EDT から
風向・風速西 5m/s
視程10km以上
少しの雲 雲底高度 7,620m
25日20時 EDT から
風向・風速西 3m/s
視程10km以上
なし
26日10時 EDT から
風向・風速西 4m/s
視程10km以上
なし
KMIA 251124Z 2512/2618 32005KT P6SM FEW060 SCT080
FM251600 28010KT P6SM FEW250
FM260000 28005KT P6SM SKC
FM261400 26008KT P6SM SKC